METAR Formatted Surface Weather Observation
Issued by NWS

Home | Current Version | Previous Version | Text Only | Print | Product List | Glossary On
Versions: 1 2 3 4 5 6 7 8 9 10 11 12
000
SAUS45 KPSR 250159
MTRNYL
METAR KNYL 250157Z 20011KT 10SM BKN120 BKN160 BKN300 42/11 A2964 RMK
AO2 SLP033 T04170111 $



USA.gov is the U.S. government's official web portal to all federal, state and local government web resources and services.